Amistad, New Mexico
Current Conditions -  °F | °C
As of 5:53 AM on Wednesday 26 Nov 2014 (Local Time) from KDHT Reporting Station
Clear Clear  
Wind Chill: -7°   Ceiling: Unl
Heat Index:   Visibility: 10mi
Dew Point: -3°   Wind: 20mph
Humidity: 79%   Direction: 360°N
Pressure: 30.2"   Gusts: NA
Location:  35.92°N, 103.16°W
Report Text: KDHT 261253Z AUTO 36017KT 10SM CLR 00/M03 A3020 RMK AO2 SLP229 T00001033
Loading
Personal Weather Stations






























Interactive Weather Map New forecast layout! Learn more

10-Day Weather Forecast

Advertisements
Track Severe Weather on mobile